sensor_id;sensor_type;location;lat;lon;timestamp;P1;durP1;ratioP1;P2;durP2;ratioP2
58643;SDS011;44411;49.994;8.660;2023-03-20T00:00:38;7.82;;;5.68;;
58643;SDS011;44411;49.994;8.660;2023-03-20T00:03:02;8.40;;;6.00;;
58643;SDS011;44411;49.994;8.660;2023-03-20T00:05:28;7.00;;;5.50;;
58643;SDS011;44411;49.994;8.660;2023-03-20T00:07:54;6.80;;;5.20;;
58643;SDS011;44411;49.994;8.660;2023-03-20T00:10:20;7.00;;;4.97;;
58643;SDS011;44411;49.994;8.660;2023-03-20T00:12:46;6.28;;;4.82;;
58643;SDS011;44411;49.994;8.660;2023-03-20T00:17:43;6.55;;;4.50;;
58643;SDS011;44411;49.994;8.660;2023-03-20T00:20:13;9.10;;;5.23;;
58643;SDS011;44411;49.994;8.660;2023-03-20T00:22:38;7.25;;;4.95;;
58643;SDS011;44411;49.994;8.660;2023-03-20T00:25:03;8.30;;;4.80;;
58643;SDS011;44411;49.994;8.660;2023-03-20T00:27:29;6.45;;;5.25;;
58643;SDS011;44411;49.994;8.660;2023-03-20T00:29:54;6.15;;;5.00;;
58643;SDS011;44411;49.994;8.660;2023-03-20T00:32:20;6.60;;;4.75;;
58643;SDS011;44411;49.994;8.660;2023-03-20T00:34:45;6.20;;;4.77;;
58643;SDS011;44411;49.994;8.660;2023-03-20T00:37:10;7.60;;;5.20;;
58643;SDS011;44411;49.994;8.660;2023-03-20T00:39:35;8.23;;;5.50;;
58643;SDS011;44411;49.994;8.660;2023-03-20T00:42:01;7.90;;;5.57;;
58643;SDS011;44411;49.994;8.660;2023-03-20T00:44:29;6.28;;;4.95;;
58643;SDS011;44411;49.994;8.660;2023-03-20T00:46:56;7.25;;;5.00;;
58643;SDS011;44411;49.994;8.660;2023-03-20T00:49:24;6.10;;;5.13;;
58643;SDS011;44411;49.994;8.660;2023-03-20T00:51:49;9.65;;;5.80;;
58643;SDS011;44411;49.994;8.660;2023-03-20T00:54:15;6.38;;;5.15;;
58643;SDS011;44411;49.994;8.660;2023-03-20T00:56:41;8.00;;;5.15;;
58643;SDS011;44411;49.994;8.660;2023-03-20T00:59:08;8.18;;;5.85;;
58643;SDS011;44411;49.994;8.660;2023-03-20T01:01:36;6.30;;;5.22;;
58643;SDS011;44411;49.994;8.660;2023-03-20T01:04:01;7.38;;;5.22;;
58643;SDS011;44411;49.994;8.660;2023-03-20T01:06:27;7.70;;;5.67;;
58643;SDS011;44411;49.994;8.660;2023-03-20T01:08:53;9.40;;;6.00;;
58643;SDS011;44411;49.994;8.660;2023-03-20T01:11:21;8.40;;;5.97;;
58643;SDS011;44411;49.994;8.660;2023-03-20T01:13:47;7.72;;;6.05;;
58643;SDS011;44411;49.994;8.660;2023-03-20T01:16:20;8.05;;;5.65;;
58643;SDS011;44411;49.994;8.660;2023-03-20T01:18:45;9.32;;;6.40;;
58643;SDS011;44411;49.994;8.660;2023-03-20T01:21:11;8.07;;;6.25;;
58643;SDS011;44411;49.994;8.660;2023-03-20T01:23:36;9.68;;;6.35;;
58643;SDS011;44411;49.994;8.660;2023-03-20T01:26:01;8.83;;;6.07;;
58643;SDS011;44411;49.994;8.660;2023-03-20T01:28:26;7.18;;;5.72;;
58643;SDS011;44411;49.994;8.660;2023-03-20T01:30:53;7.22;;;6.28;;
58643;SDS011;44411;49.994;8.660;2023-03-20T01:33:20;9.50;;;6.35;;
58643;SDS011;44411;49.994;8.660;2023-03-20T01:35:45;7.45;;;5.72;;
58643;SDS011;44411;49.994;8.660;2023-03-20T01:38:12;7.93;;;6.13;;
58643;SDS011;44411;49.994;8.660;2023-03-20T01:40:41;10.25;;;6.43;;
58643;SDS011;44411;49.994;8.660;2023-03-20T01:43:17;9.27;;;6.90;;
58643;SDS011;44411;49.994;8.660;2023-03-20T01:46:02;10.05;;;6.90;;
58643;SDS011;44411;49.994;8.660;2023-03-20T01:48:53;9.30;;;6.85;;
58643;SDS011;44411;49.994;8.660;2023-03-20T01:53:48;9.48;;;7.20;;
58643;SDS011;44411;49.994;8.660;2023-03-20T01:56:15;17.23;;;7.90;;
58643;SDS011;44411;49.994;8.660;2023-03-20T01:58:42;11.23;;;7.47;;
58643;SDS011;44411;49.994;8.660;2023-03-20T02:01:09;10.13;;;7.40;;
58643;SDS011;44411;49.994;8.660;2023-03-20T02:03:35;9.98;;;7.53;;
58643;SDS011;44411;49.994;8.660;2023-03-20T02:06:02;12.35;;;8.35;;
58643;SDS011;44411;49.994;8.660;2023-03-20T02:08:28;8.88;;;7.15;;
58643;SDS011;44411;49.994;8.660;2023-03-20T02:10:54;10.18;;;7.97;;
58643;SDS011;44411;49.994;8.660;2023-03-20T02:13:20;12.70;;;8.23;;
58643;SDS011;44411;49.994;8.660;2023-03-20T02:16:01;12.68;;;7.88;;
58643;SDS011;44411;49.994;8.660;2023-03-20T02:18:27;10.90;;;8.40;;
58643;SDS011;44411;49.994;8.660;2023-03-20T02:28:47;13.60;;;9.23;;
58643;SDS011;44411;49.994;8.660;2023-03-20T02:31:39;13.75;;;9.60;;
58643;SDS011;44411;49.994;8.660;2023-03-20T02:39:22;13.18;;;9.20;;
58643;SDS011;44411;49.994;8.660;2023-03-20T02:41:55;13.15;;;9.70;;
58643;SDS011;44411;49.994;8.660;2023-03-20T02:49:47;12.43;;;9.27;;
58643;SDS011;44411;49.994;8.660;2023-03-20T06:01:11;20.40;;;14.88;;
58643;SDS011;44411;49.994;8.660;2023-03-20T06:03:40;23.17;;;15.88;;
58643;SDS011;44411;49.994;8.660;2023-03-20T06:06:05;20.05;;;14.85;;
58643;SDS011;44411;49.994;8.660;2023-03-20T06:08:30;18.83;;;14.52;;
58643;SDS011;44411;49.994;8.660;2023-03-20T06:10:56;22.75;;;15.73;;
58643;SDS011;44411;49.994;8.660;2023-03-20T06:13:21;20.30;;;14.73;;
58643;SDS011;44411;49.994;8.660;2023-03-20T06:15:46;20.77;;;15.47;;
58643;SDS011;44411;49.994;8.660;2023-03-20T06:18:11;22.40;;;15.63;;
58643;SDS011;44411;49.994;8.660;2023-03-20T06:20:36;22.37;;;16.63;;
58643;SDS011;44411;49.994;8.660;2023-03-20T06:23:02;21.63;;;15.20;;
58643;SDS011;44411;49.994;8.660;2023-03-20T06:25:27;21.83;;;15.77;;
58643;SDS011;44411;49.994;8.660;2023-03-20T06:27:52;21.85;;;16.48;;
58643;SDS011;44411;49.994;8.660;2023-03-20T06:30:17;23.42;;;16.08;;
58643;SDS011;44411;49.994;8.660;2023-03-20T06:32:42;22.13;;;16.57;;
58643;SDS011;44411;49.994;8.660;2023-03-20T06:35:08;23.17;;;16.83;;
58643;SDS011;44411;49.994;8.660;2023-03-20T06:37:35;23.02;;;16.05;;
58643;SDS011;44411;49.994;8.660;2023-03-20T06:40:01;22.52;;;17.35;;
58643;SDS011;44411;49.994;8.660;2023-03-20T06:42:26;24.17;;;17.27;;
58643;SDS011;44411;49.994;8.660;2023-03-20T06:44:51;22.17;;;15.87;;
58643;SDS011;44411;49.994;8.660;2023-03-20T06:47:16;22.83;;;17.67;;
58643;SDS011;44411;49.994;8.660;2023-03-20T06:49:42;23.03;;;17.03;;
58643;SDS011;44411;49.994;8.660;2023-03-20T06:52:09;25.05;;;17.63;;
58643;SDS011;44411;49.994;8.660;2023-03-20T06:54:38;22.92;;;16.55;;
58643;SDS011;44411;49.994;8.660;2023-03-20T06:57:03;24.90;;;18.17;;
58643;SDS011;44411;49.994;8.660;2023-03-20T06:59:28;23.40;;;16.70;;
58643;SDS011;44411;49.994;8.660;2023-03-20T07:01:53;23.57;;;16.67;;
58643;SDS011;44411;49.994;8.660;2023-03-20T07:04:18;24.93;;;16.83;;
58643;SDS011;44411;49.994;8.660;2023-03-20T07:06:44;26.08;;;16.98;;
58643;SDS011;44411;49.994;8.660;2023-03-20T07:09:09;25.30;;;16.92;;
58643;SDS011;44411;49.994;8.660;2023-03-20T07:11:35;24.83;;;17.43;;
58643;SDS011;44411;49.994;8.660;2023-03-20T07:14:00;23.60;;;17.92;;
58643;SDS011;44411;49.994;8.660;2023-03-20T07:16:26;22.50;;;16.48;;
58643;SDS011;44411;49.994;8.660;2023-03-20T07:18:51;24.55;;;17.30;;
58643;SDS011;44411;49.994;8.660;2023-03-20T07:21:18;21.02;;;16.20;;
58643;SDS011;44411;49.994;8.660;2023-03-20T07:23:43;25.17;;;17.42;;
58643;SDS011;44411;49.994;8.660;2023-03-20T07:26:09;24.03;;;17.17;;
58643;SDS011;44411;49.994;8.660;2023-03-20T07:28:34;23.55;;;16.27;;
58643;SDS011;44411;49.994;8.660;2023-03-20T07:30:59;21.95;;;15.60;;
58643;SDS011;44411;49.994;8.660;2023-03-20T07:33:25;22.10;;;16.48;;
58643;SDS011;44411;49.994;8.660;2023-03-20T07:35:50;25.25;;;16.98;;
58643;SDS011;44411;49.994;8.660;2023-03-20T07:38:16;23.33;;;16.27;;
58643;SDS011;44411;49.994;8.660;2023-03-20T07:40:41;25.40;;;16.90;;
58643;SDS011;44411;49.994;8.660;2023-03-20T07:43:06;27.57;;;18.10;;
58643;SDS011;44411;49.994;8.660;2023-03-20T07:45:31;27.13;;;18.70;;
58643;SDS011;44411;49.994;8.660;2023-03-20T07:47:56;26.70;;;17.70;;
58643;SDS011;44411;49.994;8.660;2023-03-20T07:50:22;24.63;;;17.73;;
58643;SDS011;44411;49.994;8.660;2023-03-20T07:52:47;25.70;;;18.02;;
58643;SDS011;44411;49.994;8.660;2023-03-20T07:55:13;27.65;;;18.50;;
58643;SDS011;44411;49.994;8.660;2023-03-20T07:57:38;24.83;;;17.25;;
58643;SDS011;44411;49.994;8.660;2023-03-20T08:00:03;26.43;;;18.20;;
58643;SDS011;44411;49.994;8.660;2023-03-20T08:02:29;28.45;;;19.27;;
58643;SDS011;44411;49.994;8.660;2023-03-20T08:04:54;27.80;;;18.63;;
58643;SDS011;44411;49.994;8.660;2023-03-20T08:07:20;28.85;;;18.00;;
58643;SDS011;44411;49.994;8.660;2023-03-20T08:09:45;25.85;;;18.63;;
58643;SDS011;44411;49.994;8.660;2023-03-20T08:12:10;29.40;;;20.60;;
58643;SDS011;44411;49.994;8.660;2023-03-20T08:14:35;27.87;;;19.50;;
58643;SDS011;44411;49.994;8.660;2023-03-20T08:17:02;32.38;;;20.48;;
58643;SDS011;44411;49.994;8.660;2023-03-20T08:19:28;32.35;;;21.00;;
58643;SDS011;44411;49.994;8.660;2023-03-20T08:21:53;33.25;;;22.00;;
58643;SDS011;44411;49.994;8.660;2023-03-20T08:24:18;33.50;;;21.07;;
58643;SDS011;44411;49.994;8.660;2023-03-20T08:26:43;36.13;;;22.43;;
58643;SDS011;44411;49.994;8.660;2023-03-20T08:29:10;33.28;;;21.25;;
58643;SDS011;44411;49.994;8.660;2023-03-20T08:31:36;32.00;;;20.55;;
58643;SDS011;44411;49.994;8.660;2023-03-20T08:34:01;38.00;;;22.57;;
58643;SDS011;44411;49.994;8.660;2023-03-20T08:36:26;40.20;;;22.63;;
58643;SDS011;44411;49.994;8.660;2023-03-20T08:38:51;43.77;;;24.50;;
58643;SDS011;44411;49.994;8.660;2023-03-20T08:41:17;44.10;;;24.93;;
58643;SDS011;44411;49.994;8.660;2023-03-20T08:43:42;50.13;;;27.67;;
58643;SDS011;44411;49.994;8.660;2023-03-20T08:46:07;48.43;;;28.70;;
58643;SDS011;44411;49.994;8.660;2023-03-20T08:48:33;51.28;;;29.40;;
58643;SDS011;44411;49.994;8.660;2023-03-20T08:50:58;50.95;;;30.05;;
58643;SDS011;44411;49.994;8.660;2023-03-20T08:53:23;49.80;;;28.92;;
58643;SDS011;44411;49.994;8.660;2023-03-20T08:55:52;64.30;;;31.80;;
58643;SDS011;44411;49.994;8.660;2023-03-20T08:58:17;54.78;;;28.98;;
58643;SDS011;44411;49.994;8.660;2023-03-20T09:00:43;56.20;;;29.23;;
58643;SDS011;44411;49.994;8.660;2023-03-20T09:03:11;56.97;;;29.25;;
58643;SDS011;44411;49.994;8.660;2023-03-20T09:08:03;54.22;;;29.73;;
58643;SDS011;44411;49.994;8.660;2023-03-20T09:10:29;52.25;;;27.80;;
58643;SDS011;44411;49.994;8.660;2023-03-20T09:12:54;58.28;;;28.27;;
58643;SDS011;44411;49.994;8.660;2023-03-20T09:15:20;56.55;;;29.08;;
58643;SDS011;44411;49.994;8.660;2023-03-20T09:17:45;54.90;;;29.27;;
58643;SDS011;44411;49.994;8.660;2023-03-20T09:20:10;56.30;;;29.17;;
58643;SDS011;44411;49.994;8.660;2023-03-20T09:22:36;53.95;;;27.65;;
58643;SDS011;44411;49.994;8.660;2023-03-20T09:25:01;56.53;;;30.20;;
58643;SDS011;44411;49.994;8.660;2023-03-20T09:27:27;53.30;;;27.40;;
58643;SDS011;44411;49.994;8.660;2023-03-20T09:29:52;57.10;;;29.05;;
58643;SDS011;44411;49.994;8.660;2023-03-20T09:32:17;55.93;;;27.57;;
58643;SDS011;44411;49.994;8.660;2023-03-20T09:34:43;55.75;;;28.83;;
58643;SDS011;44411;49.994;8.660;2023-03-20T09:37:08;54.13;;;27.50;;
58643;SDS011;44411;49.994;8.660;2023-03-20T09:39:33;57.03;;;29.00;;
58643;SDS011;44411;49.994;8.660;2023-03-20T09:42:00;57.97;;;28.40;;
58643;SDS011;44411;49.994;8.660;2023-03-20T09:44:37;53.35;;;28.83;;
58643;SDS011;44411;49.994;8.660;2023-03-20T09:49:44;53.67;;;28.08;;
58643;SDS011;44411;49.994;8.660;2023-03-20T09:54:41;60.08;;;29.25;;
58643;SDS011;44411;49.994;8.660;2023-03-20T09:57:16;62.75;;;31.65;;
58643;SDS011;44411;49.994;8.660;2023-03-20T09:59:43;59.40;;;29.33;;
58643;SDS011;44411;49.994;8.660;2023-03-20T10:02:18;56.30;;;28.50;;
58643;SDS011;44411;49.994;8.660;2023-03-20T10:04:48;58.15;;;29.50;;
58643;SDS011;44411;49.994;8.660;2023-03-20T10:07:15;59.00;;;30.67;;
58643;SDS011;44411;49.994;8.660;2023-03-20T10:09:41;56.25;;;32.15;;
58643;SDS011;44411;49.994;8.660;2023-03-20T10:14:52;54.78;;;31.90;;
58643;SDS011;44411;49.994;8.660;2023-03-20T10:19:50;50.55;;;28.08;;
58643;SDS011;44411;49.994;8.660;2023-03-20T10:22:22;51.00;;;30.17;;
58643;SDS011;44411;49.994;8.660;2023-03-20T10:32:17;41.28;;;24.73;;
58643;SDS011;44411;49.994;8.660;2023-03-20T10:34:47;39.88;;;25.00;;
58643;SDS011;44411;49.994;8.660;2023-03-20T10:42:18;25.60;;;17.63;;
58643;SDS011;44411;49.994;8.660;2023-03-20T10:44:52;27.20;;;15.80;;
58643;SDS011;44411;49.994;8.660;2023-03-20T10:47:19;20.67;;;13.90;;
58643;SDS011;44411;49.994;8.660;2023-03-20T10:49:53;27.27;;;17.67;;
58643;SDS011;44411;49.994;8.660;2023-03-20T10:52:20;26.25;;;16.52;;
58643;SDS011;44411;49.994;8.660;2023-03-20T10:54:47;23.80;;;16.67;;
58643;SDS011;44411;49.994;8.660;2023-03-20T10:57:17;24.42;;;16.48;;
58643;SDS011;44411;49.994;8.660;2023-03-20T10:59:54;21.13;;;13.82;;
58643;SDS011;44411;49.994;8.660;2023-03-20T11:02:20;18.23;;;13.00;;
58643;SDS011;44411;49.994;8.660;2023-03-20T11:04:46;17.50;;;11.98;;
58643;SDS011;44411;49.994;8.660;2023-03-20T11:09:37;19.02;;;12.15;;
58643;SDS011;44411;49.994;8.660;2023-03-20T11:12:02;21.15;;;12.48;;
58643;SDS011;44411;49.994;8.660;2023-03-20T11:14:36;17.90;;;12.43;;
58643;SDS011;44411;49.994;8.660;2023-03-20T11:17:02;16.60;;;12.25;;
58643;SDS011;44411;49.994;8.660;2023-03-20T11:19:31;18.02;;;13.18;;
58643;SDS011;44411;49.994;8.660;2023-03-20T11:21:57;18.48;;;12.48;;
58643;SDS011;44411;49.994;8.660;2023-03-20T11:27:26;17.88;;;11.75;;
58643;SDS011;44411;49.994;8.660;2023-03-20T11:29:52;14.48;;;10.38;;
58643;SDS011;44411;49.994;8.660;2023-03-20T11:34:53;16.33;;;10.50;;
58643;SDS011;44411;49.994;8.660;2023-03-20T11:37:26;15.75;;;10.82;;
58643;SDS011;44411;49.994;8.660;2023-03-20T11:39:56;16.20;;;11.10;;
58643;SDS011;44411;49.994;8.660;2023-03-20T11:42:24;15.50;;;11.48;;
58643;SDS011;44411;49.994;8.660;2023-03-20T11:44:55;17.10;;;12.05;;
58643;SDS011;44411;49.994;8.660;2023-03-20T11:47:21;17.35;;;13.20;;
58643;SDS011;44411;49.994;8.660;2023-03-20T11:49:56;17.92;;;13.10;;
58643;SDS011;44411;49.994;8.660;2023-03-20T11:52:23;19.52;;;13.73;;
58643;SDS011;44411;49.994;8.660;2023-03-20T11:54:50;20.90;;;13.85;;
58643;SDS011;44411;49.994;8.660;2023-03-20T11:57:49;15.75;;;11.95;;
58643;SDS011;44411;49.994;8.660;2023-03-20T12:00:25;16.55;;;12.88;;
58643;SDS011;44411;49.994;8.660;2023-03-20T12:02:52;16.63;;;12.43;;
58643;SDS011;44411;49.994;8.660;2023-03-20T12:05:28;16.30;;;11.73;;
58643;SDS011;44411;49.994;8.660;2023-03-20T12:07:57;14.80;;;11.20;;
58643;SDS011;44411;49.994;8.660;2023-03-20T12:10:25;15.40;;;12.18;;
58643;SDS011;44411;49.994;8.660;2023-03-20T12:13:12;18.58;;;12.68;;
58643;SDS011;44411;49.994;8.660;2023-03-20T12:15:39;15.43;;;11.77;;
58643;SDS011;44411;49.994;8.660;2023-03-20T12:28:37;13.20;;;9.90;;
58643;SDS011;44411;49.994;8.660;2023-03-20T12:36:15;10.55;;;7.95;;
58643;SDS011;44411;49.994;8.660;2023-03-20T12:38:41;13.02;;;8.93;;
58643;SDS011;44411;49.994;8.660;2023-03-20T12:41:14;11.02;;;7.05;;
58643;SDS011;44411;49.994;8.660;2023-03-20T12:48:41;9.67;;;6.07;;
58643;SDS011;44411;49.994;8.660;2023-03-20T12:51:21;10.82;;;6.30;;
58643;SDS011;44411;49.994;8.660;2023-03-20T12:58:58;6.07;;;3.85;;
58643;SDS011;44411;49.994;8.660;2023-03-20T13:01:30;5.72;;;3.22;;
58643;SDS011;44411;49.994;8.660;2023-03-20T13:04:04;5.35;;;3.22;;
58643;SDS011;44411;49.994;8.660;2023-03-20T13:12:03;8.20;;;3.50;;
58643;SDS011;44411;49.994;8.660;2023-03-20T13:22:18;8.02;;;4.50;;
58643;SDS011;44411;49.994;8.660;2023-03-20T13:24:54;7.10;;;3.95;;
58643;SDS011;44411;49.994;8.660;2023-03-20T13:29:54;5.45;;;3.67;;
58643;SDS011;44411;49.994;8.660;2023-03-20T13:34:53;6.30;;;3.72;;
58643;SDS011;44411;49.994;8.660;2023-03-20T13:37:25;6.30;;;3.55;;
58643;SDS011;44411;49.994;8.660;2023-03-20T13:42:24;5.10;;;3.30;;
58643;SDS011;44411;49.994;8.660;2023-03-20T13:45:00;6.85;;;3.60;;
58643;SDS011;44411;49.994;8.660;2023-03-20T13:47:27;6.05;;;3.67;;
58643;SDS011;44411;49.994;8.660;2023-03-20T13:52:28;7.13;;;4.00;;
58643;SDS011;44411;49.994;8.660;2023-03-20T14:00:09;8.30;;;3.55;;
58643;SDS011;44411;49.994;8.660;2023-03-20T14:05:19;6.70;;;3.78;;
58643;SDS011;44411;49.994;8.660;2023-03-20T14:07:47;9.13;;;4.35;;
58643;SDS011;44411;49.994;8.660;2023-03-20T14:15:31;8.00;;;3.50;;
58643;SDS011;44411;49.994;8.660;2023-03-20T14:17:57;5.78;;;3.58;;
58643;SDS011;44411;49.994;8.660;2023-03-20T14:20:30;6.68;;;3.90;;
58643;SDS011;44411;49.994;8.660;2023-03-20T14:22:56;10.13;;;4.55;;
58643;SDS011;44411;49.994;8.660;2023-03-20T14:25:21;6.95;;;4.45;;
58643;SDS011;44411;49.994;8.660;2023-03-20T14:31:10;7.93;;;4.15;;
58643;SDS011;44411;49.994;8.660;2023-03-20T14:33:40;8.10;;;5.03;;
58643;SDS011;44411;49.994;8.660;2023-03-20T14:36:10;7.60;;;4.32;;
58643;SDS011;44411;49.994;8.660;2023-03-20T14:41:10;9.90;;;4.07;;
58643;SDS011;44411;49.994;8.660;2023-03-20T14:46:43;7.10;;;3.67;;
58643;SDS011;44411;49.994;8.660;2023-03-20T14:51:47;5.68;;;3.20;;
58643;SDS011;44411;49.994;8.660;2023-03-20T14:56:46;6.40;;;3.05;;
58643;SDS011;44411;49.994;8.660;2023-03-20T14:59:12;11.05;;;4.13;;
58643;SDS011;44411;49.994;8.660;2023-03-20T15:04:04;6.33;;;4.13;;
58643;SDS011;44411;49.994;8.660;2023-03-20T15:06:31;9.40;;;4.57;;
58643;SDS011;44411;49.994;8.660;2023-03-20T15:09:02;6.30;;;4.00;;
58643;SDS011;44411;49.994;8.660;2023-03-20T15:11:29;6.88;;;4.28;;
58643;SDS011;44411;49.994;8.660;2023-03-20T15:13:55;7.72;;;4.15;;
58643;SDS011;44411;49.994;8.660;2023-03-20T15:16:26;8.38;;;4.30;;
58643;SDS011;44411;49.994;8.660;2023-03-20T15:21:18;6.32;;;4.05;;
58643;SDS011;44411;49.994;8.660;2023-03-20T15:23:44;6.28;;;3.67;;
58643;SDS011;44411;49.994;8.660;2023-03-20T15:26:10;6.63;;;4.10;;
58643;SDS011;44411;49.994;8.660;2023-03-20T15:28:36;6.30;;;3.80;;
58643;SDS011;44411;49.994;8.660;2023-03-20T15:31:02;6.03;;;3.70;;
58643;SDS011;44411;49.994;8.660;2023-03-20T15:33:29;6.15;;;3.58;;
58643;SDS011;44411;49.994;8.660;2023-03-20T15:35:55;6.13;;;3.25;;
58643;SDS011;44411;49.994;8.660;2023-03-20T15:38:20;6.35;;;3.08;;
58643;SDS011;44411;49.994;8.660;2023-03-20T15:40:46;7.45;;;3.95;;
58643;SDS011;44411;49.994;8.660;2023-03-20T15:43:20;5.07;;;3.30;;
58643;SDS011;44411;49.994;8.660;2023-03-20T15:45:45;7.07;;;3.80;;
58643;SDS011;44411;49.994;8.660;2023-03-20T15:48:14;4.97;;;3.00;;
58643;SDS011;44411;49.994;8.660;2023-03-20T15:50:40;5.03;;;3.07;;
58643;SDS011;44411;49.994;8.660;2023-03-20T15:53:13;6.25;;;3.47;;
58643;SDS011;44411;49.994;8.660;2023-03-20T15:55:39;7.00;;;3.75;;
58643;SDS011;44411;49.994;8.660;2023-03-20T15:58:04;7.25;;;3.53;;
58643;SDS011;44411;49.994;8.660;2023-03-20T16:00:30;8.03;;;3.70;;
58643;SDS011;44411;49.994;8.660;2023-03-20T16:02:57;8.70;;;3.85;;
58643;SDS011;44411;49.994;8.660;2023-03-20T16:05:24;7.47;;;3.58;;
58643;SDS011;44411;49.994;8.660;2023-03-20T16:07:50;5.75;;;3.00;;
58643;SDS011;44411;49.994;8.660;2023-03-20T16:10:16;6.40;;;3.40;;
58643;SDS011;44411;49.994;8.660;2023-03-20T16:12:46;5.45;;;3.00;;
58643;SDS011;44411;49.994;8.660;2023-03-20T16:15:14;5.28;;;3.33;;
58643;SDS011;44411;49.994;8.660;2023-03-20T16:17:39;5.35;;;3.30;;
58643;SDS011;44411;49.994;8.660;2023-03-20T16:20:05;6.05;;;3.25;;
58643;SDS011;44411;49.994;8.660;2023-03-20T16:22:30;6.68;;;3.20;;
58643;SDS011;44411;49.994;8.660;2023-03-20T16:24:58;6.35;;;3.60;;
58643;SDS011;44411;49.994;8.660;2023-03-20T16:27:41;6.65;;;3.70;;
58643;SDS011;44411;49.994;8.660;2023-03-20T16:30:15;6.47;;;3.20;;
58643;SDS011;44411;49.994;8.660;2023-03-20T16:32:45;6.65;;;3.80;;
58643;SDS011;44411;49.994;8.660;2023-03-20T16:37:41;7.07;;;3.07;;
58643;SDS011;44411;49.994;8.660;2023-03-20T16:40:12;7.30;;;3.28;;
58643;SDS011;44411;49.994;8.660;2023-03-20T16:42:38;5.53;;;3.40;;
58643;SDS011;44411;49.994;8.660;2023-03-20T16:45:04;6.50;;;3.08;;
58643;SDS011;44411;49.994;8.660;2023-03-20T16:47:34;6.47;;;3.42;;
58643;SDS011;44411;49.994;8.660;2023-03-20T16:50:04;6.25;;;3.38;;
58643;SDS011;44411;49.994;8.660;2023-03-20T16:52:35;7.78;;;3.25;;
58643;SDS011;44411;49.994;8.660;2023-03-20T16:55:01;5.72;;;3.25;;
58643;SDS011;44411;49.994;8.660;2023-03-20T16:57:27;5.25;;;2.95;;
58643;SDS011;44411;49.994;8.660;2023-03-20T16:59:54;6.10;;;3.35;;
58643;SDS011;44411;49.994;8.660;2023-03-20T17:02:28;6.95;;;3.35;;
58643;SDS011;44411;49.994;8.660;2023-03-20T17:04:55;6.55;;;3.17;;
58643;SDS011;44411;49.994;8.660;2023-03-20T17:07:21;6.22;;;3.45;;
58643;SDS011;44411;49.994;8.660;2023-03-20T17:12:36;6.10;;;2.70;;
58643;SDS011;44411;49.994;8.660;2023-03-20T17:15:02;7.05;;;3.67;;
58643;SDS011;44411;49.994;8.660;2023-03-20T17:17:27;5.10;;;2.75;;
58643;SDS011;44411;49.994;8.660;2023-03-20T17:19:53;5.32;;;2.80;;
58643;SDS011;44411;49.994;8.660;2023-03-20T17:22:19;7.50;;;2.88;;
58643;SDS011;44411;49.994;8.660;2023-03-20T17:24:45;5.57;;;2.63;;
58643;SDS011;44411;49.994;8.660;2023-03-20T17:27:10;4.95;;;2.40;;
58643;SDS011;44411;49.994;8.660;2023-03-20T17:29:36;5.30;;;2.85;;
58643;SDS011;44411;49.994;8.660;2023-03-20T17:32:01;6.35;;;3.33;;
58643;SDS011;44411;49.994;8.660;2023-03-20T17:34:26;5.03;;;2.43;;
58643;SDS011;44411;49.994;8.660;2023-03-20T17:36:52;5.88;;;2.33;;
58643;SDS011;44411;49.994;8.660;2023-03-20T17:39:17;7.32;;;2.45;;
58643;SDS011;44411;49.994;8.660;2023-03-20T17:41:43;7.25;;;2.88;;
58643;SDS011;44411;49.994;8.660;2023-03-20T17:44:08;5.35;;;2.55;;
58643;SDS011;44411;49.994;8.660;2023-03-20T17:46:34;4.88;;;2.47;;
58643;SDS011;44411;49.994;8.660;2023-03-20T17:49:20;5.13;;;2.88;;
58643;SDS011;44411;49.994;8.660;2023-03-20T17:51:50;6.30;;;2.78;;
58643;SDS011;44411;49.994;8.660;2023-03-20T17:54:15;6.33;;;2.53;;
58643;SDS011;44411;49.994;8.660;2023-03-20T17:56:41;5.88;;;2.10;;
58643;SDS011;44411;49.994;8.660;2023-03-20T17:59:08;5.73;;;2.83;;
58643;SDS011;44411;49.994;8.660;2023-03-20T18:01:36;5.80;;;2.88;;
58643;SDS011;44411;49.994;8.660;2023-03-20T18:04:01;4.50;;;2.30;;
58643;SDS011;44411;49.994;8.660;2023-03-20T18:06:27;6.35;;;2.95;;
58643;SDS011;44411;49.994;8.660;2023-03-20T18:08:53;5.78;;;2.60;;
58643;SDS011;44411;49.994;8.660;2023-03-20T18:11:19;4.60;;;2.75;;
58643;SDS011;44411;49.994;8.660;2023-03-20T18:13:44;5.45;;;3.00;;
58643;SDS011;44411;49.994;8.660;2023-03-20T18:16:16;4.80;;;3.00;;
58643;SDS011;44411;49.994;8.660;2023-03-20T18:18:42;7.20;;;3.30;;
58643;SDS011;44411;49.994;8.660;2023-03-20T18:21:09;4.97;;;2.83;;
58643;SDS011;44411;49.994;8.660;2023-03-20T18:23:35;5.25;;;2.92;;
58643;SDS011;44411;49.994;8.660;2023-03-20T18:26:00;7.60;;;2.85;;
58643;SDS011;44411;49.994;8.660;2023-03-20T18:28:25;7.18;;;2.83;;
58643;SDS011;44411;49.994;8.660;2023-03-20T18:30:51;5.33;;;2.93;;
58643;SDS011;44411;49.994;8.660;2023-03-20T18:33:16;6.75;;;2.53;;
58643;SDS011;44411;49.994;8.660;2023-03-20T18:35:42;8.18;;;3.53;;
58643;SDS011;44411;49.994;8.660;2023-03-20T18:38:13;5.88;;;3.15;;
58643;SDS011;44411;49.994;8.660;2023-03-20T18:40:38;6.20;;;3.50;;
58643;SDS011;44411;49.994;8.660;2023-03-20T18:43:03;8.30;;;3.20;;
58643;SDS011;44411;49.994;8.660;2023-03-20T18:45:29;5.40;;;3.22;;
58643;SDS011;44411;49.994;8.660;2023-03-20T18:47:55;6.47;;;3.13;;
58643;SDS011;44411;49.994;8.660;2023-03-20T18:52:49;7.05;;;3.60;;
58643;SDS011;44411;49.994;8.660;2023-03-20T18:55:15;8.20;;;3.53;;
58643;SDS011;44411;49.994;8.660;2023-03-20T18:57:40;6.95;;;3.50;;
58643;SDS011;44411;49.994;8.660;2023-03-20T19:02:37;6.57;;;3.03;;
58643;SDS011;44411;49.994;8.660;2023-03-20T19:05:02;7.23;;;3.63;;
58643;SDS011;44411;49.994;8.660;2023-03-20T19:07:28;7.20;;;3.60;;
58643;SDS011;44411;49.994;8.660;2023-03-20T19:09:53;5.93;;;3.10;;
58643;SDS011;44411;49.994;8.660;2023-03-20T19:12:18;8.80;;;3.57;;
58643;SDS011;44411;49.994;8.660;2023-03-20T19:14:44;8.35;;;3.75;;
58643;SDS011;44411;49.994;8.660;2023-03-20T19:17:10;6.75;;;4.03;;
58643;SDS011;44411;49.994;8.660;2023-03-20T19:19:35;7.40;;;3.77;;
58643;SDS011;44411;49.994;8.660;2023-03-20T19:22:00;7.20;;;4.20;;
58643;SDS011;44411;49.994;8.660;2023-03-20T19:24:25;7.77;;;4.03;;
58643;SDS011;44411;49.994;8.660;2023-03-20T19:26:50;8.45;;;4.80;;
58643;SDS011;44411;49.994;8.660;2023-03-20T19:29:20;8.60;;;4.53;;
58643;SDS011;44411;49.994;8.660;2023-03-20T19:31:46;7.97;;;4.57;;
58643;SDS011;44411;49.994;8.660;2023-03-20T19:34:11;9.77;;;4.87;;
58643;SDS011;44411;49.994;8.660;2023-03-20T19:36:36;7.53;;;4.63;;
58643;SDS011;44411;49.994;8.660;2023-03-20T19:39:03;8.75;;;4.38;;
58643;SDS011;44411;49.994;8.660;2023-03-20T19:41:30;9.35;;;4.25;;
58643;SDS011;44411;49.994;8.660;2023-03-20T19:43:56;8.13;;;3.88;;
58643;SDS011;44411;49.994;8.660;2023-03-20T19:46:22;11.85;;;4.68;;
58643;SDS011;44411;49.994;8.660;2023-03-20T19:48:48;9.05;;;4.35;;
58643;SDS011;44411;49.994;8.660;2023-03-20T19:51:14;8.20;;;4.03;;
58643;SDS011;44411;49.994;8.660;2023-03-20T19:53:40;8.57;;;4.32;;
58643;SDS011;44411;49.994;8.660;2023-03-20T19:56:07;9.25;;;4.18;;
58643;SDS011;44411;49.994;8.660;2023-03-20T19:58:33;6.25;;;3.63;;
58643;SDS011;44411;49.994;8.660;2023-03-20T20:00:58;7.63;;;4.00;;
58643;SDS011;44411;49.994;8.660;2023-03-20T20:03:23;8.57;;;4.00;;
58643;SDS011;44411;49.994;8.660;2023-03-20T20:05:49;8.75;;;4.38;;
58643;SDS011;44411;49.994;8.660;2023-03-20T20:08:15;8.00;;;4.20;;
58643;SDS011;44411;49.994;8.660;2023-03-20T20:13:06;8.60;;;4.47;;
58643;SDS011;44411;49.994;8.660;2023-03-20T20:15:32;7.85;;;3.67;;